sensor_id;sensor_type;location;lat;lon;timestamp;pressure;altitude;pressure_sealevel;temperature;humidity
46199;BME280;31928;52.104;10.030;2023-05-19T16:37:25;101293.47;;;24.16;27.81
46199;BME280;31928;52.104;10.030;2023-05-19T16:39:51;101290.75;;;24.11;27.76
46199;BME280;31928;52.104;10.030;2023-05-19T16:42:18;101294.63;;;24.05;28.16
46199;BME280;31928;52.104;10.030;2023-05-19T16:44:45;101287.78;;;23.97;27.61
46199;BME280;31928;52.104;10.030;2023-05-19T16:47:12;101295.22;;;23.92;27.97
46199;BME280;31928;52.104;10.030;2023-05-19T16:49:38;101297.97;;;23.87;27.87
46199;BME280;31928;52.104;10.030;2023-05-19T16:52:09;101293.56;;;23.81;28.06
46199;BME280;31928;52.104;10.030;2023-05-19T16:54:36;101301.00;;;23.75;28.18
46199;BME280;31928;52.104;10.030;2023-05-19T16:57:03;101303.75;;;23.70;28.31
46199;BME280;31928;52.104;10.030;2023-05-19T16:59:30;101302.63;;;23.66;28.28
46199;BME280;31928;52.104;10.030;2023-05-19T17:01:57;101307.81;;;23.63;28.44
46199;BME280;31928;52.104;10.030;2023-05-19T17:04:23;101302.91;;;23.60;28.67
46199;BME280;31928;52.104;10.030;2023-05-19T17:06:50;101303.19;;;23.58;29.05
46199;BME280;31928;52.104;10.030;2023-05-19T17:09:17;101299.88;;;23.57;29.13
46199;BME280;31928;52.104;10.030;2023-05-19T17:11:54;101294.41;;;23.61;29.43
46199;BME280;31928;52.104;10.030;2023-05-19T17:14:21;101282.63;;;23.56;29.55
46199;BME280;31928;52.104;10.030;2023-05-19T17:16:47;101285.38;;;23.56;29.18
46199;BME280;31928;52.104;10.030;2023-05-19T17:19:14;101284.00;;;23.58;29.66
46199;BME280;31928;52.104;10.030;2023-05-19T17:21:41;101288.41;;;23.59;29.85
46199;BME280;31928;52.104;10.030;2023-05-19T17:24:08;101278.78;;;23.62;29.83
46199;BME280;31928;52.104;10.030;2023-05-19T17:26:35;101288.66;;;23.63;29.46
46199;BME280;31928;52.104;10.030;2023-05-19T17:29:02;101282.06;;;23.64;28.68
46199;BME280;31928;52.104;10.030;2023-05-19T17:31:28;101282.06;;;23.64;28.87
46199;BME280;31928;52.104;10.030;2023-05-19T17:33:55;101283.16;;;23.63;28.58
46199;BME280;31928;52.104;10.030;2023-05-19T17:36:22;101292.47;;;23.62;28.49
46199;BME280;31928;52.104;10.030;2023-05-19T17:38:48;101289.22;;;23.60;28.08
46199;BME280;31928;52.104;10.030;2023-05-19T17:41:15;101281.56;;;23.57;28.52
46199;BME280;31928;52.104;10.030;2023-05-19T17:43:42;101287.56;;;23.54;28.14
46199;BME280;31928;52.104;10.030;2023-05-19T17:46:09;101287.31;;;23.51;28.49
46199;BME280;31928;52.104;10.030;2023-05-19T17:48:37;101287.03;;;23.47;28.46
46199;BME280;31928;52.104;10.030;2023-05-19T17:51:05;101292.22;;;23.44;28.39
46199;BME280;31928;52.104;10.030;2023-05-19T17:53:34;101288.69;;;23.38;28.75
46199;BME280;31928;52.104;10.030;2023-05-19T17:56:02;101293.88;;;23.35;28.38
46199;BME280;31928;52.104;10.030;2023-05-19T17:58:31;101287.31;;;23.31;28.48
46199;BME280;31928;52.104;10.030;2023-05-19T18:00:58;101292.50;;;23.27;28.94
46199;BME280;31928;52.104;10.030;2023-05-19T18:03:25;101288.66;;;23.23;28.84
46199;BME280;31928;52.104;10.030;2023-05-19T18:05:52;101289.22;;;23.20;29.12
46199;BME280;31928;52.104;10.030;2023-05-19T18:08:19;101288.66;;;23.18;29.04
46199;BME280;31928;52.104;10.030;2023-05-19T18:10:46;101283.75;;;23.15;29.36
46199;BME280;31928;52.104;10.030;2023-05-19T18:13:16;101285.94;;;23.13;29.40
46199;BME280;31928;52.104;10.030;2023-05-19T18:15:43;101279.34;;;23.09;29.82
46199;BME280;31928;52.104;10.030;2023-05-19T18:18:10;101282.91;;;23.05;29.40
46199;BME280;31928;52.104;10.030;2023-05-19T18:20:37;101284.56;;;23.01;29.62
46199;BME280;31928;52.104;10.030;2023-05-19T18:23:06;101284.22;;;22.97;29.51
46199;BME280;31928;52.104;10.030;2023-05-19T18:25:34;101291.34;;;22.94;29.66
46199;BME280;31928;52.104;10.030;2023-05-19T18:28:01;101289.44;;;22.89;29.58
46199;BME280;31928;52.104;10.030;2023-05-19T18:30:27;101289.69;;;22.83;29.42
46199;BME280;31928;52.104;10.030;2023-05-19T18:32:54;101298.69;;;22.78;29.62
46199;BME280;31928;52.104;10.030;2023-05-19T18:35:21;101289.66;;;22.73;30.01
46199;BME280;31928;52.104;10.030;2023-05-19T18:37:48;101296.19;;;22.67;30.13
46199;BME280;31928;52.104;10.030;2023-05-19T18:40:15;101297.31;;;22.61;30.31
46199;BME280;31928;52.104;10.030;2023-05-19T18:42:41;101294.53;;;22.56;30.32
46199;BME280;31928;52.104;10.030;2023-05-19T18:45:08;101290.13;;;22.50;30.40
46199;BME280;31928;52.104;10.030;2023-05-19T18:47:35;101291.19;;;22.44;30.46
46199;BME280;31928;52.104;10.030;2023-05-19T18:50:02;101308.69;;;22.38;30.40
46199;BME280;31928;52.104;10.030;2023-05-19T18:52:29;101302.63;;;22.31;30.42
46199;BME280;31928;52.104;10.030;2023-05-19T18:54:56;101306.41;;;22.25;30.24
46199;BME280;31928;52.104;10.030;2023-05-19T18:57:24;101302.28;;;22.18;30.43
46199;BME280;31928;52.104;10.030;2023-05-19T18:59:51;101306.91;;;22.12;30.42
46199;BME280;31928;52.104;10.030;2023-05-19T19:02:18;101305.47;;;22.05;30.65
46199;BME280;31928;52.104;10.030;2023-05-19T19:04:45;101315.56;;;21.99;30.67
46199;BME280;31928;52.104;10.030;2023-05-19T19:07:11;101316.59;;;21.93;30.71
46199;BME280;31928;52.104;10.030;2023-05-19T19:09:38;101323.13;;;21.87;30.64
46199;BME280;31928;52.104;10.030;2023-05-19T19:12:09;101309.69;;;21.81;30.45
46199;BME280;31928;52.104;10.030;2023-05-19T19:14:36;101320.84;;;21.74;30.75
46199;BME280;31928;52.104;10.030;2023-05-19T19:17:04;101321.06;;;21.68;30.86
46199;BME280;31928;52.104;10.030;2023-05-19T19:19:30;101316.91;;;21.61;30.75
46199;BME280;31928;52.104;10.030;2023-05-19T19:21:57;101321.53;;;21.55;30.84
46199;BME280;31928;52.104;10.030;2023-05-19T19:24:24;101313.53;;;21.49;31.29
46199;BME280;31928;52.104;10.030;2023-05-19T19:26:51;101318.38;;;21.42;31.01
46199;BME280;31928;52.104;10.030;2023-05-19T19:29:18;101323.22;;;21.35;31.30
46199;BME280;31928;52.104;10.030;2023-05-19T19:31:47;101322.63;;;21.28;31.40
46199;BME280;31928;52.104;10.030;2023-05-19T19:34:14;101328.31;;;21.21;31.61
46199;BME280;31928;52.104;10.030;2023-05-19T19:36:41;101328.50;;;21.15;31.48
46199;BME280;31928;52.104;10.030;2023-05-19T19:39:08;101334.19;;;21.09;31.49
46199;BME280;31928;52.104;10.030;2023-05-19T19:41:34;101334.38;;;21.02;31.94
46199;BME280;31928;52.104;10.030;2023-05-19T19:44:02;101342.78;;;20.96;31.85
46199;BME280;31928;52.104;10.030;2023-05-19T19:46:29;101341.06;;;20.90;32.13
46199;BME280;31928;52.104;10.030;2023-05-19T19:48:56;101343.44;;;20.81;32.34
46199;BME280;31928;52.104;10.030;2023-05-19T19:51:26;101350.97;;;20.74;32.55
46199;BME280;31928;52.104;10.030;2023-05-19T19:53:54;101345.94;;;20.66;32.62
46199;BME280;31928;52.104;10.030;2023-05-19T19:56:20;101344.50;;;20.59;32.57
46199;BME280;31928;52.104;10.030;2023-05-19T19:58:50;101341.41;;;20.51;33.02
46199;BME280;31928;52.104;10.030;2023-05-19T20:01:16;101350.00;;;20.43;33.21
46199;BME280;31928;52.104;10.030;2023-05-19T20:03:46;101343.91;;;20.36;32.96
46199;BME280;31928;52.104;10.030;2023-05-19T20:06:13;101344.91;;;20.30;33.14
46199;BME280;31928;52.104;10.030;2023-05-19T20:08:40;101344.28;;;20.23;33.72
46199;BME280;31928;52.104;10.030;2023-05-19T20:11:07;101343.66;;;20.16;33.91
46199;BME280;31928;52.104;10.030;2023-05-19T20:13:34;101345.72;;;20.09;34.78
46199;BME280;31928;52.104;10.030;2023-05-19T20:16:00;101338.56;;;20.03;34.08
46199;BME280;31928;52.104;10.030;2023-05-19T20:18:27;101347.47;;;19.98;33.94
46199;BME280;31928;52.104;10.030;2023-05-19T20:20:55;101348.72;;;19.91;34.47
46199;BME280;31928;52.104;10.030;2023-05-19T20:23:22;101351.34;;;19.86;33.95
46199;BME280;31928;52.104;10.030;2023-05-19T20:25:49;101356.16;;;19.79;34.72
46199;BME280;31928;52.104;10.030;2023-05-19T20:28:36;101356.88;;;19.75;34.29
46199;BME280;31928;52.104;10.030;2023-05-19T20:31:03;101352.91;;;19.66;34.50
46199;BME280;31928;52.104;10.030;2023-05-19T20:33:30;101361.25;;;19.59;34.61
46199;BME280;31928;52.104;10.030;2023-05-19T20:35:57;101361.41;;;19.53;34.69
46199;BME280;31928;52.104;10.030;2023-05-19T20:38:24;101361.56;;;19.46;34.55
46199;BME280;31928;52.104;10.030;2023-05-19T20:40:53;101362.66;;;19.45;34.97
46199;BME280;31928;52.104;10.030;2023-05-19T20:43:19;101361.44;;;19.36;34.50
46199;BME280;31928;52.104;10.030;2023-05-19T20:45:46;101369.25;;;19.33;34.95
46199;BME280;31928;52.104;10.030;2023-05-19T20:48:13;101365.63;;;19.28;34.72
46199;BME280;31928;52.104;10.030;2023-05-19T20:50:41;101369.91;;;19.24;35.11
46199;BME280;31928;52.104;10.030;2023-05-19T20:53:08;101377.13;;;19.18;35.00
46199;BME280;31928;52.104;10.030;2023-05-19T20:55:35;101374.09;;;19.15;35.35
46199;BME280;31928;52.104;10.030;2023-05-19T20:58:03;101373.97;;;19.10;35.88
46199;BME280;31928;52.104;10.030;2023-05-19T21:00:30;101381.19;;;19.04;35.77
46199;BME280;31928;52.104;10.030;2023-05-19T21:02:57;101379.19;;;19.00;35.51
46199;BME280;31928;52.104;10.030;2023-05-19T21:05:24;101383.47;;;18.96;36.03
46199;BME280;31928;52.104;10.030;2023-05-19T21:07:50;101382.78;;;18.89;35.96
46199;BME280;31928;52.104;10.030;2023-05-19T21:10:17;101384.56;;;18.83;36.33
46199;BME280;31928;52.104;10.030;2023-05-19T21:12:44;101387.19;;;18.78;36.32
46199;BME280;31928;52.104;10.030;2023-05-19T21:15:12;101383.53;;;18.73;36.29
46199;BME280;31928;52.104;10.030;2023-05-19T21:17:38;101387.81;;;18.69;36.10
46199;BME280;31928;52.104;10.030;2023-05-19T21:20:05;101391.47;;;18.63;36.48
46199;BME280;31928;52.104;10.030;2023-05-19T21:22:32;101386.78;;;18.59;36.61
46199;BME280;31928;52.104;10.030;2023-05-19T21:25:01;101384.78;;;18.54;37.01
46199;BME280;31928;52.104;10.030;2023-05-19T21:27:28;101386.31;;;18.50;36.92
46199;BME280;31928;52.104;10.030;2023-05-19T21:29:54;101384.09;;;18.47;36.84
46199;BME280;31928;52.104;10.030;2023-05-19T21:32:21;101388.34;;;18.43;37.13
46199;BME280;31928;52.104;10.030;2023-05-19T21:34:48;101390.94;;;18.38;37.45
46199;BME280;31928;52.104;10.030;2023-05-19T21:37:15;101392.50;;;18.34;37.53
46199;BME280;31928;52.104;10.030;2023-05-19T21:39:45;101391.31;;;18.30;37.58
46199;BME280;31928;52.104;10.030;2023-05-19T21:42:12;101385.78;;;18.25;37.90
46199;BME280;31928;52.104;10.030;2023-05-19T21:44:39;101393.81;;;18.20;37.72
46199;BME280;31928;52.104;10.030;2023-05-19T21:47:06;101385.50;;;18.15;38.10
46199;BME280;31928;52.104;10.030;2023-05-19T21:49:32;101393.53;;;18.10;38.02
46199;BME280;31928;52.104;10.030;2023-05-19T21:51:59;101401.59;;;18.06;38.12
46199;BME280;31928;52.104;10.030;2023-05-19T21:54:26;101399.81;;;18.00;38.10
46199;BME280;31928;52.104;10.030;2023-05-19T21:56:53;101405.09;;;17.95;38.44
46199;BME280;31928;52.104;10.030;2023-05-19T21:59:19;101410.41;;;17.90;38.81
46199;BME280;31928;52.104;10.030;2023-05-19T22:01:48;101408.66;;;17.84;38.81
46199;BME280;31928;52.104;10.030;2023-05-19T22:04:15;101415.38;;;17.81;38.46
46199;BME280;31928;52.104;10.030;2023-05-19T22:06:44;101422.53;;;17.76;38.88
46199;BME280;31928;52.104;10.030;2023-05-19T22:09:11;101421.38;;;17.72;39.29
46199;BME280;31928;52.104;10.030;2023-05-19T22:11:38;101416.41;;;17.69;38.96
46199;BME280;31928;52.104;10.030;2023-05-19T22:14:05;101415.81;;;17.67;39.19
46199;BME280;31928;52.104;10.030;2023-05-19T22:16:32;101414.84;;;17.61;39.57
46199;BME280;31928;52.104;10.030;2023-05-19T22:18:59;101417.19;;;17.58;39.32
46199;BME280;31928;52.104;10.030;2023-05-19T22:21:26;101407.88;;;17.54;39.76
46199;BME280;31928;52.104;10.030;2023-05-19T22:23:53;101405.66;;;17.51;39.87
46199;BME280;31928;52.104;10.030;2023-05-19T22:26:20;101402.56;;;17.47;39.89
46199;BME280;31928;52.104;10.030;2023-05-19T22:28:48;101400.56;;;17.43;39.59
46199;BME280;31928;52.104;10.030;2023-05-19T22:31:15;101402.66;;;17.41;40.17
46199;BME280;31928;52.104;10.030;2023-05-19T22:33:42;101397.72;;;17.38;40.21
46199;BME280;31928;52.104;10.030;2023-05-19T22:36:09;101405.25;;;17.36;40.53
46199;BME280;31928;52.104;10.030;2023-05-19T22:38:36;101402.19;;;17.33;40.42
46199;BME280;31928;52.104;10.030;2023-05-19T22:41:03;101409.94;;;17.29;40.40
46199;BME280;31928;52.104;10.030;2023-05-19T22:43:30;101394.72;;;17.28;40.80
46199;BME280;31928;52.104;10.030;2023-05-19T22:45:56;101409.81;;;17.24;40.81
46199;BME280;31928;52.104;10.030;2023-05-19T22:48:23;101409.19;;;17.22;40.53
46199;BME280;31928;52.104;10.030;2023-05-19T22:50:50;101405.06;;;17.20;40.66
46199;BME280;31928;52.104;10.030;2023-05-19T22:53:17;101410.09;;;17.16;41.01
46199;BME280;31928;52.104;10.030;2023-05-19T22:55:44;101405.97;;;17.14;41.04
46199;BME280;31928;52.104;10.030;2023-05-19T22:58:11;101400.19;;;17.10;41.47
46199;BME280;31928;52.104;10.030;2023-05-19T23:00:37;101403.66;;;17.47;37.54
46199;BME280;31928;52.104;10.030;2023-05-19T23:03:04;101408.31;;;17.10;40.62
46199;BME280;31928;52.104;10.030;2023-05-19T23:05:31;101410.28;;;17.03;41.23
46199;BME280;31928;52.104;10.030;2023-05-19T23:07:58;101417.22;;;16.99;41.47
46199;BME280;31928;52.104;10.030;2023-05-19T23:10:25;101408.72;;;16.96;41.56
46199;BME280;31928;52.104;10.030;2023-05-19T23:12:52;101412.13;;;16.91;41.32
46199;BME280;31928;52.104;10.030;2023-05-19T23:15:19;101418.00;;;16.88;41.67
46199;BME280;31928;52.104;10.030;2023-05-19T23:17:46;101417.94;;;17.24;37.87
46199;BME280;31928;52.104;10.030;2023-05-19T23:20:12;101412.56;;;16.88;41.24
46199;BME280;31928;52.104;10.030;2023-05-19T23:22:39;101418.91;;;16.83;41.94
46199;BME280;31928;52.104;10.030;2023-05-19T23:25:06;101407.94;;;16.78;41.85
46199;BME280;31928;52.104;10.030;2023-05-19T23:27:34;101429.00;;;16.76;41.96
46199;BME280;31928;52.104;10.030;2023-05-19T23:30:02;101418.84;;;16.71;42.16
46199;BME280;31928;52.104;10.030;2023-05-19T23:32:29;101421.19;;;16.68;42.10
46199;BME280;31928;52.104;10.030;2023-05-19T23:34:56;101415.38;;;16.64;42.58
46199;BME280;31928;52.104;10.030;2023-05-19T23:37:23;101413.69;;;16.99;38.65
46199;BME280;31928;52.104;10.030;2023-05-19T23:39:49;101418.09;;;16.64;42.15
46199;BME280;31928;52.104;10.030;2023-05-19T23:42:16;101416.31;;;16.58;42.55
46199;BME280;31928;52.104;10.030;2023-05-19T23:44:43;101414.25;;;16.54;42.37
46199;BME280;31928;52.104;10.030;2023-05-19T23:47:10;101413.41;;;16.89;38.79
46199;BME280;31928;52.104;10.030;2023-05-19T23:49:37;101416.97;;;16.54;42.29
46199;BME280;31928;52.104;10.030;2023-05-19T23:52:04;101414.34;;;16.47;42.54
46199;BME280;31928;52.104;10.030;2023-05-19T23:54:30;101413.94;;;16.44;43.17
46199;BME280;31928;52.104;10.030;2023-05-19T23:56:57;101408.63;;;16.37;43.22
46199;BME280;31928;52.104;10.030;2023-05-19T23:59:24;101417.19;;;16.34;43.17
